Signal Hill, Illinois
Current Conditions -  °F | °C
As of 1:53 PM on Friday 31 Oct 2014 (Local Time) from KCPS Reporting Station
Scattered Clouds Scattered Clouds  
Wind Chill: 39°   Ceiling: Unl
Heat Index: 46°   Visibility: 10mi
Dew Point: 27°   Wind: 17mph
Humidity: 47%   Direction: 340°NNW
Pressure: 30.29"   Gusts: 26mph
Location:  38.5251°N, 90.0796°W
Report Text: KCPS 311853Z 34015G23KT 10SM SCT046 08/M03 A3029 RMK AO2 PK WND 32029/1812 SLP257 T00781028
Loading
Personal Weather Stations






























Interactive Weather Map
Tropical Storm Tracking
New forecast layout! Learn more

10-Day Weather Forecast

Advertisements
Track Severe Weather on mobile